INDIA METEOROLOGICAL DEPARTMENT, R.M.C. NEW DELHI
Dated:7 - 12 - 2019
METARS OF ALTERNATE AIRPORTS
Delhi      
VIDP 071100Z 07004KT 1200 R28/2000 R29/2000 FU NSC 22/10 Q1017 BECMG 1500 FU =
Lucknow    
VILK 071030Z VRB03KT 2500 HZ NSC 24/15 Q1016 NOSIG=
Jaipur     
VIJP 071100Z 10005KT 2000 HZ NSC 22/04 Q1017 BECMG 1500 FU=
Ahmedabad  
VAAH 071100Z 06005KT 4000 FU FEW020 SCT080 27/08 Q1015 NOSIG=
Udaipur    
VAUD 071100Z 09003KT 2000 HZ NSC 23/10 Q1017 NOSIG=
Mumbai     
VABB 071100Z 30005KT 4000 FU NSC 31/19 Q1011 NOSIG=